createdAt,value
2019-01-21T00:00:00.586Z,-0.82
2019-01-21T00:02:28.970Z,-0.79
2019-01-21T00:05:00.592Z,-0.77
2019-01-21T00:07:36.898Z,-0.72
2019-01-21T00:15:58.272Z,-0.64
2019-01-21T00:21:35.018Z,-0.57
2019-01-21T00:24:04.259Z,-0.55
2019-01-21T00:26:34.013Z,-0.52
2019-01-21T00:29:04.497Z,-0.48
2019-01-21T00:31:34.268Z,-0.45
2019-01-21T00:34:05.963Z,-0.43
2019-01-21T00:36:52.119Z,-0.41
2019-01-21T00:39:23.996Z,-0.39
2019-01-21T00:41:57.674Z,-0.34
2019-01-21T00:53:35.174Z,-0.24
2019-01-21T01:07:39.367Z,-0.14
2019-01-21T01:10:19.712Z,-0.12
2019-01-21T01:24:58.730Z,-0.28
2019-01-21T01:27:41.214Z,-0.32
2019-01-21T01:30:16.907Z,-0.35
2019-01-21T01:32:54.974Z,-0.37
2019-01-21T01:35:27.802Z,-0.39
2019-01-21T01:38:06.844Z,-0.42
2019-01-21T01:40:36.114Z,-0.43
2019-01-21T02:09:28.729Z,-0.08
2019-01-21T02:18:19.160Z,0.08
2019-01-21T02:20:48.378Z,0.11
2019-01-21T02:23:17.517Z,0.15
2019-01-21T02:25:46.632Z,0.18
2019-01-21T02:31:30.182Z,0.19
2019-01-21T02:34:04.940Z,0.16
2019-01-21T02:36:52.483Z,0.13
2019-01-21T02:39:28.113Z,0.12
2019-01-21T02:48:06.861Z,0.18
2019-01-21T02:53:37.708Z,0.43
2019-01-21T02:56:16.592Z,0.37
2019-01-21T03:01:51.777Z,0.26
2019-01-21T03:04:25.992Z,0.22
2019-01-21T03:06:56.412Z,0.22
2019-01-21T03:09:27.349Z,0.23
2019-01-21T03:12:02.310Z,0.28
2019-01-21T03:14:35.220Z,0.31
2019-01-21T03:17:06.178Z,0.36
2019-01-21T03:19:36.220Z,0.40
2019-01-21T03:22:15.413Z,0.44
2019-01-21T03:24:44.563Z,0.48
2019-01-21T03:27:19.562Z,0.50
2019-01-21T03:29:50.465Z,0.55
2019-01-21T03:32:29.238Z,0.59
2019-01-21T03:35:01.095Z,0.63
2019-01-21T03:37:35.650Z,0.67
2019-01-21T03:40:12.265Z,0.71
2019-01-21T03:42:47.927Z,0.75
2019-01-21T03:45:26.838Z,0.79
2019-01-21T03:47:56.028Z,0.83
2019-01-21T03:50:27.930Z,0.87
2019-01-21T03:53:01.576Z,0.91
2019-01-21T03:55:30.660Z,0.95
2019-01-21T03:58:00.728Z,0.98
2019-01-21T04:00:30.847Z,1.01
2019-01-21T04:03:03.482Z,1.04
2019-01-21T04:05:33.404Z,1.08
2019-01-21T04:08:06.478Z,1.12
2019-01-21T04:10:38.314Z,1.16
2019-01-21T04:13:09.393Z,1.22
2019-01-21T04:15:38.563Z,1.25
2019-01-21T04:18:10.667Z,1.30
2019-01-21T04:20:48.339Z,1.34
2019-01-21T04:23:20.973Z,1.37
2019-01-21T04:25:54.919Z,1.41
2019-01-21T04:28:24.035Z,1.44
2019-01-21T04:31:03.681Z,1.47
2019-01-21T04:33:50.975Z,1.49
2019-01-21T04:36:23.536Z,1.51
2019-01-21T04:38:56.372Z,1.52
2019-01-21T04:41:27.274Z,1.53
2019-01-21T04:43:57.895Z,1.54
2019-01-21T04:46:31.705Z,1.58
2019-01-21T04:49:06.571Z,1.60
2019-01-21T04:51:39.373Z,1.62
2019-01-21T04:54:12.329Z,1.65
2019-01-21T04:56:44.400Z,1.67
2019-01-21T04:59:29.566Z,1.69
2019-01-21T05:02:11.146Z,1.73
2019-01-21T05:04:44.827Z,1.73
2019-01-21T05:07:14.755Z,1.77
2019-01-21T05:09:44.633Z,1.78
2019-01-21T05:12:13.727Z,1.79
2019-01-21T05:14:48.669Z,1.81
2019-01-21T05:17:28.385Z,1.84
2019-01-21T05:20:09.421Z,1.85
2019-01-21T05:22:39.082Z,1.84
2019-01-21T05:25:11.953Z,1.80
2019-01-21T05:27:41.842Z,1.80
2019-01-21T05:30:11.721Z,1.81
2019-01-21T05:32:40.765Z,1.81
2019-01-21T05:35:18.560Z,1.81
2019-01-21T05:37:49.342Z,1.84
2019-01-21T05:40:25.088Z,1.87
2019-01-21T05:42:57.935Z,1.89
2019-01-21T05:45:45.409Z,1.90
2019-01-21T05:48:32.918Z,1.93
2019-01-21T05:51:09.564Z,1.92
2019-01-21T05:53:44.205Z,1.89
2019-01-21T05:56:19.210Z,1.87
2019-01-21T05:58:54.205Z,1.87
2019-01-21T06:04:16.204Z,1.84
2019-01-21T06:07:01.104Z,1.79
2019-01-21T06:09:30.904Z,1.77
2019-01-21T06:11:59.966Z,1.77
2019-01-21T06:14:31.756Z,1.76
2019-01-21T06:17:06.628Z,1.73
2019-01-21T06:19:40.233Z,1.77
2019-01-21T06:22:13.942Z,1.75
2019-01-21T06:24:44.663Z,1.71
2019-01-21T06:27:15.065Z,1.72
2019-01-21T06:29:49.008Z,1.73
2019-01-21T06:32:26.561Z,1.75
2019-01-21T06:35:02.282Z,1.73
2019-01-21T06:37:32.194Z,1.71
2019-01-21T06:40:18.428Z,1.72
2019-01-21T06:42:53.375Z,1.69
2019-01-21T06:45:38.506Z,1.70
2019-01-21T06:48:14.744Z,1.70
2019-01-21T06:50:45.662Z,1.71
2019-01-21T06:53:16.283Z,1.71
2019-01-21T06:55:51.105Z,1.71
2019-01-21T06:58:38.831Z,1.73
2019-01-21T07:01:19.827Z,1.72
2019-01-21T07:03:48.921Z,1.68
2019-01-21T07:06:22.960Z,1.66
2019-01-21T07:08:55.946Z,1.64
2019-01-21T07:11:31.379Z,1.64
2019-01-21T07:14:05.381Z,1.65
2019-01-21T07:16:41.214Z,1.67
2019-01-21T07:19:15.913Z,1.66
2019-01-21T07:21:56.772Z,1.67
2019-01-21T07:24:28.637Z,1.70
2019-01-21T07:27:00.464Z,1.72
2019-01-21T07:29:34.426Z,1.73
2019-01-21T07:32:03.663Z,1.76
2019-01-21T07:34:33.587Z,1.77
2019-01-21T07:37:07.226Z,1.77
2019-01-21T07:39:41.851Z,1.80
2019-01-21T07:42:15.763Z,1.84
2019-01-21T07:44:56.665Z,1.86
2019-01-21T07:47:34.752Z,1.88
2019-01-21T07:50:07.792Z,1.90
2019-01-21T07:52:38.698Z,1.92
2019-01-21T07:55:11.317Z,1.90
2019-01-21T07:57:43.981Z,1.88
2019-01-21T08:00:13.875Z,1.91
2019-01-21T08:02:55.601Z,1.95
2019-01-21T08:05:24.655Z,1.99
2019-01-21T08:07:54.511Z,1.99
2019-01-21T08:10:25.521Z,2.00
2019-01-21T08:13:00.138Z,2.04
2019-01-21T08:15:31.901Z,2.06
2019-01-21T08:18:01.858Z,2.06
2019-01-21T08:20:31.895Z,2.05
2019-01-21T08:23:03.090Z,2.04
2019-01-21T08:25:35.938Z,2.04
2019-01-21T08:28:09.667Z,2.09
2019-01-21T08:30:40.367Z,2.08
2019-01-21T08:33:19.098Z,2.05
2019-01-21T08:36:06.901Z,2.06
2019-01-21T08:38:37.066Z,2.11
2019-01-21T08:41:09.565Z,2.16
2019-01-21T08:43:39.444Z,2.17
2019-01-21T08:46:24.339Z,2.17
2019-01-21T08:48:58.997Z,2.19
2019-01-21T08:51:28.038Z,2.24
2019-01-21T08:53:59.042Z,2.25
2019-01-21T08:56:29.980Z,2.20
2019-01-21T08:59:00.575Z,2.22
2019-01-21T09:01:37.254Z,2.19
2019-01-21T09:04:08.293Z,2.23
2019-01-21T09:06:42.939Z,2.20
2019-01-21T09:09:30.666Z,2.20
2019-01-21T09:12:03.286Z,2.18
2019-01-21T09:14:34.988Z,2.22
2019-01-21T09:17:07.746Z,2.23
2019-01-21T09:19:37.388Z,2.19
2019-01-21T09:22:06.648Z,2.20
2019-01-21T09:24:35.754Z,2.15
2019-01-21T09:27:09.396Z,2.17
2019-01-21T09:29:38.547Z,2.17
2019-01-21T09:32:14.182Z,2.11
2019-01-21T09:34:44.702Z,2.12
2019-01-21T09:37:16.570Z,2.13
2019-01-21T09:39:46.506Z,2.13
2019-01-21T09:42:15.596Z,2.17
2019-01-21T09:44:45.635Z,2.24
2019-01-21T09:47:14.231Z,2.26
2019-01-21T09:49:43.781Z,2.27
2019-01-21T09:52:12.435Z,2.30
2019-01-21T09:54:41.520Z,2.34
2019-01-21T09:57:10.585Z,2.37
2019-01-21T09:59:39.639Z,2.43
2019-01-21T10:02:08.740Z,2.56
2019-01-21T10:04:37.885Z,2.61
2019-01-21T10:07:10.544Z,2.63
2019-01-21T10:09:39.600Z,2.58
2019-01-21T10:12:25.251Z,2.67
2019-01-21T10:14:58.005Z,2.74
2019-01-21T10:17:27.943Z,2.79
2019-01-21T10:20:15.730Z,2.82
2019-01-21T10:22:51.659Z,2.79
2019-01-21T10:28:30.081Z,2.76
2019-01-21T10:30:59.955Z,2.72
2019-01-21T10:33:37.691Z,2.74
2019-01-21T10:36:23.263Z,2.78
2019-01-21T10:38:54.330Z,2.83
2019-01-21T10:41:25.190Z,2.85
2019-01-21T10:44:00.145Z,2.85
2019-01-21T10:46:34.999Z,2.79
2019-01-21T10:49:22.718Z,2.76
2019-01-21T10:51:54.301Z,2.75
2019-01-21T10:54:24.360Z,2.85
2019-01-21T10:56:54.978Z,2.91
2019-01-21T10:59:27.749Z,2.89
2019-01-21T11:02:00.494Z,2.92
2019-01-21T11:04:30.547Z,2.89
2019-01-21T11:07:02.474Z,2.84
2019-01-21T11:09:35.422Z,2.89
2019-01-21T11:12:15.185Z,2.92
2019-01-21T11:14:48.741Z,2.90
2019-01-21T11:17:21.600Z,2.73
2019-01-21T11:20:03.688Z,2.74
2019-01-21T11:22:26.443Z,2.75
2019-01-21T11:24:58.060Z,2.71
2019-01-21T11:27:33.645Z,2.66
2019-01-21T11:30:08.389Z,2.65
2019-01-21T11:32:37.436Z,2.69
2019-01-21T11:35:13.020Z,2.61
2019-01-21T11:37:46.766Z,2.66
2019-01-21T11:40:16.774Z,2.64
2019-01-21T11:42:57.655Z,2.66
2019-01-21T11:45:45.806Z,2.71
2019-01-21T11:48:17.782Z,2.74
2019-01-21T11:50:47.784Z,2.72
2019-01-21T11:53:19.275Z,2.79
2019-01-21T11:56:08.621Z,2.78
2019-01-21T11:58:43.537Z,2.75
2019-01-21T12:01:17.665Z,2.74
2019-01-21T12:03:47.573Z,2.76
2019-01-21T12:06:16.632Z,2.72
2019-01-21T12:08:53.293Z,2.69
2019-01-21T12:11:26.888Z,2.56
2019-01-21T12:14:03.463Z,2.45
2019-01-21T12:16:38.226Z,2.40
2019-01-21T12:19:08.253Z,2.37
2019-01-21T12:21:39.236Z,2.34
2019-01-21T12:24:08.274Z,2.37
2019-01-21T12:26:43.043Z,2.37
2019-01-21T12:29:13.598Z,2.40
2019-01-21T12:31:42.653Z,2.29
2019-01-21T12:34:16.465Z,2.28
2019-01-21T12:36:45.510Z,2.23
2019-01-21T12:39:18.528Z,2.20
2019-01-21T12:41:51.227Z,2.20
2019-01-21T12:44:39.558Z,2.16
2019-01-21T12:47:15.206Z,2.15
2019-01-21T12:49:49.802Z,2.22
2019-01-21T12:52:18.860Z,2.22
2019-01-21T12:54:47.954Z,2.22
2019-01-21T12:57:18.966Z,2.17
2019-01-21T12:59:48.829Z,2.18
2019-01-21T13:02:20.721Z,2.18
2019-01-21T13:04:50.715Z,2.12
2019-01-21T13:07:19.769Z,2.10
2019-01-21T13:09:49.820Z,2.15
2019-01-21T13:12:18.882Z,2.16
2019-01-21T13:14:49.753Z,2.16
2019-01-21T13:17:19.655Z,2.14
2019-01-21T13:19:50.650Z,2.12
2019-01-21T13:22:22.307Z,2.12
2019-01-21T13:25:03.118Z,2.15
2019-01-21T13:27:40.802Z,2.14
2019-01-21T13:30:11.351Z,2.13
2019-01-21T13:32:42.988Z,2.13
2019-01-21T13:35:17.995Z,2.12
2019-01-21T13:37:52.816Z,2.13
2019-01-21T13:40:27.726Z,2.11
2019-01-21T13:42:56.825Z,2.12
2019-01-21T13:45:44.078Z,2.12
2019-01-21T13:48:13.188Z,2.13
2019-01-21T13:50:43.010Z,2.09
2019-01-21T13:53:13.668Z,2.07
2019-01-21T13:55:43.678Z,2.04
2019-01-21T13:58:16.599Z,2.02
2019-01-21T14:00:49.460Z,1.96
2019-01-21T14:03:18.526Z,1.92
2019-01-21T14:08:50.551Z,1.84
2019-01-21T14:11:24.308Z,1.83
2019-01-21T14:13:54.316Z,1.83
2019-01-21T14:16:26.335Z,1.81
2019-01-21T14:18:57.308Z,1.77
2019-01-21T14:21:34.184Z,1.75
2019-01-21T14:24:05.661Z,1.72
2019-01-21T14:26:50.354Z,1.69
2019-01-21T14:29:21.930Z,1.65
2019-01-21T14:31:56.680Z,1.59
2019-01-21T14:34:31.452Z,1.53
2019-01-21T14:37:04.288Z,1.48
2019-01-21T14:39:34.284Z,1.43
2019-01-21T14:42:11.867Z,1.36
2019-01-21T14:44:47.584Z,1.33
2019-01-21T14:47:23.236Z,1.29
2019-01-21T14:49:54.159Z,1.25
2019-01-21T14:52:28.727Z,1.22
2019-01-21T14:55:06.461Z,1.18
2019-01-21T14:57:38.486Z,1.14
2019-01-21T15:00:10.348Z,1.10
2019-01-21T15:02:41.398Z,1.07
2019-01-21T15:05:16.353Z,1.04
2019-01-21T15:07:47.984Z,0.99
2019-01-21T15:10:17.857Z,0.94
2019-01-21T15:12:53.221Z,0.89
2019-01-21T15:15:41.576Z,0.82
2019-01-21T15:18:14.595Z,0.75
2019-01-21T15:20:44.652Z,0.70
2019-01-21T15:23:13.693Z,0.65
2019-01-21T15:25:56.445Z,0.61
2019-01-21T15:28:31.090Z,0.57
2019-01-21T15:31:05.908Z,0.54
2019-01-21T15:33:39.987Z,0.53
2019-01-21T15:36:14.978Z,0.53
2019-01-21T15:38:59.766Z,0.51
2019-01-21T15:41:28.858Z,0.50
2019-01-21T15:43:57.947Z,0.49
2019-01-21T15:46:32.768Z,0.48
2019-01-21T15:49:06.419Z,0.45
2019-01-21T15:51:38.203Z,0.41
2019-01-21T15:54:08.856Z,0.38
2019-01-21T15:56:51.977Z,0.33
2019-01-21T15:59:36.925Z,0.28
2019-01-21T16:02:06.817Z,0.23
2019-01-21T16:04:35.883Z,0.19
2019-01-21T16:07:05.727Z,0.16
2019-01-21T16:09:40.551Z,0.13
2019-01-21T16:12:14.508Z,0.10
2019-01-21T16:14:46.507Z,0.08
2019-01-21T16:17:15.562Z,0.05
2019-01-21T16:19:44.614Z,0.01
2019-01-21T16:22:21.311Z,-0.03
2019-01-21T16:24:53.311Z,-0.08
2019-01-21T16:27:25.111Z,-0.12
2019-01-21T16:29:54.173Z,-0.17
2019-01-21T16:32:23.246Z,-0.23
2019-01-21T16:34:58.130Z,-0.26
2019-01-21T16:37:29.029Z,-0.32
2019-01-21T16:40:13.240Z,-0.38
2019-01-21T16:42:42.306Z,-0.45
2019-01-21T16:45:11.377Z,-0.49
2019-01-21T16:47:40.510Z,-0.55
2019-01-21T16:50:09.587Z,-0.60
2019-01-21T16:52:38.661Z,-0.66
2019-01-21T16:55:07.830Z,-0.70
2019-01-21T16:57:36.858Z,-0.76
2019-01-21T17:00:05.931Z,-0.82
2019-01-21T17:02:35.011Z,-0.88
2019-01-21T17:05:04.077Z,-0.95
2019-01-21T17:07:33.157Z,-1.03
2019-01-21T17:10:02.268Z,-1.12
2019-01-21T17:12:31.330Z,-1.20
2019-01-21T17:15:01.237Z,-1.29
2019-01-21T17:17:30.329Z,-1.38
2019-01-21T17:19:59.400Z,-1.47
2019-01-21T17:22:28.485Z,-1.59
2019-01-21T17:24:57.592Z,-1.64
2019-01-21T17:27:26.679Z,-1.70
2019-01-21T17:29:55.759Z,-1.75
2019-01-21T17:32:24.946Z,-1.81
2019-01-21T17:34:54.037Z,-1.88
2019-01-21T17:37:23.129Z,-1.98
2019-01-21T17:39:52.235Z,-2.07
2019-01-21T17:42:21.317Z,-2.17
2019-01-21T17:44:50.393Z,-2.26
2019-01-21T17:47:19.496Z,-2.33
2019-01-21T17:49:48.574Z,-2.37
2019-01-21T17:52:17.652Z,-2.41
2019-01-21T17:54:46.785Z,-2.47
2019-01-21T17:57:15.869Z,-2.50
2019-01-21T17:59:44.928Z,-2.53
2019-01-21T18:02:14.034Z,-2.57
2019-01-21T18:04:43.134Z,-2.63
2019-01-21T18:07:12.181Z,-2.67
2019-01-21T18:09:41.282Z,-2.73
2019-01-21T18:12:10.366Z,-2.76
2019-01-21T18:14:39.427Z,-2.79
2019-01-21T18:17:08.558Z,-2.79
2019-01-21T18:19:37.633Z,-2.77
2019-01-21T18:22:06.716Z,-2.74
2019-01-21T18:24:35.825Z,-2.73
2019-01-21T18:27:04.896Z,-2.74
2019-01-21T18:29:33.953Z,-2.81
2019-01-21T18:32:03.058Z,-2.86
2019-01-21T18:34:32.129Z,-2.91
2019-01-21T18:37:01.216Z,-2.96
2019-01-21T18:39:30.357Z,-3.00
2019-01-21T18:41:59.422Z,-3.04
2019-01-21T18:44:28.507Z,-3.10
2019-01-21T18:46:57.597Z,-3.15
2019-01-21T18:49:26.664Z,-3.20
2019-01-21T18:51:55.747Z,-3.23
2019-01-21T18:54:24.845Z,-3.28
2019-01-21T18:56:53.920Z,-3.29
2019-01-21T18:59:22.983Z,-3.32
2019-01-21T19:01:52.143Z,-3.35
2019-01-21T19:04:21.229Z,-3.38
2019-01-21T19:06:50.312Z,-3.38
2019-01-21T19:09:19.496Z,-3.39
2019-01-21T19:11:48.541Z,-3.41
2019-01-21T19:14:17.635Z,-3.44
2019-01-21T19:16:46.740Z,-3.47
2019-01-21T19:19:16.640Z,-3.48
2019-01-21T19:21:45.718Z,-3.51
2019-01-21T19:24:14.942Z,-3.51
2019-01-21T19:29:47.929Z,-3.47
2019-01-21T19:32:17.003Z,-3.47
2019-01-21T19:34:46.073Z,-3.45
2019-01-21T19:37:15.184Z,-3.47
2019-01-21T19:39:44.260Z,-3.50
2019-01-21T19:42:13.362Z,-3.55
2019-01-21T19:44:42.496Z,-3.73
2019-01-21T19:47:11.572Z,-3.94
2019-01-21T19:49:40.646Z,-4.17
2019-01-21T19:52:09.746Z,-4.23
2019-01-21T19:54:38.837Z,-4.28
2019-01-21T19:57:07.913Z,-4.25
2019-01-21T19:59:37.010Z,-4.26
2019-01-21T20:02:06.085Z,-4.30
2019-01-21T20:04:35.162Z,-4.33
2019-01-21T20:07:04.268Z,-4.32
2019-01-21T20:09:33.352Z,-4.33
2019-01-21T20:12:02.438Z,-4.31
2019-01-21T20:14:31.577Z,-4.31
2019-01-21T20:17:00.648Z,-4.31
2019-01-21T20:19:29.720Z,-4.31
2019-01-21T20:21:58.815Z,-4.42
2019-01-21T20:24:27.887Z,-4.46
2019-01-21T20:26:56.961Z,-4.50
2019-01-21T20:29:26.095Z,-4.50
2019-01-21T20:31:55.173Z,-4.46
2019-01-21T20:34:24.255Z,-4.44
2019-01-21T20:36:53.370Z,-4.41
2019-01-21T20:39:22.872Z,-4.34
2019-01-21T20:41:51.728Z,-4.25
2019-01-21T20:44:20.844Z,-4.16
2019-01-21T20:46:49.924Z,-4.03
2019-01-21T20:49:19.063Z,-3.92
2019-01-21T20:51:48.512Z,-3.86
2019-01-21T20:54:17.593Z,-3.75
2019-01-21T20:56:46.707Z,-3.64
2019-01-21T20:59:15.840Z,-3.53
2019-01-21T21:01:45.079Z,-3.48
2019-01-21T21:04:14.189Z,-3.40
2019-01-21T21:06:43.321Z,-3.32
2019-01-21T21:09:12.393Z,-3.27
2019-01-21T21:11:41.539Z,-3.19
2019-01-21T21:14:11.102Z,-3.11
2019-01-21T21:16:40.178Z,-3.04
2019-01-21T21:19:09.262Z,-3.05
2019-01-21T21:21:38.364Z,-3.01
2019-01-21T21:24:07.440Z,-2.95
2019-01-21T21:39:14.976Z,-2.62
2019-01-21T21:41:44.041Z,-2.56
2019-01-21T21:44:13.122Z,-2.49
2019-01-21T21:46:42.216Z,-2.43
2019-01-21T21:49:11.287Z,-2.36
2019-01-21T21:51:40.404Z,-2.31
2019-01-21T21:54:09.562Z,-2.26
2019-01-21T21:56:38.673Z,-2.21
2019-01-21T21:59:07.787Z,-2.16
2019-01-21T22:01:40.064Z,-2.11
2019-01-21T22:04:06.035Z,-2.05
2019-01-21T22:06:35.155Z,-2.01
2019-01-21T22:09:04.315Z,-2.01
2019-01-21T22:11:33.425Z,-1.99
2019-01-21T22:14:02.567Z,-2.01
2019-01-21T22:16:31.740Z,-1.99
2019-01-21T22:19:00.885Z,-1.95
2019-01-21T22:21:29.995Z,-1.89
2019-01-21T22:23:59.205Z,-1.82
2019-01-21T22:26:28.295Z,-1.76
2019-01-21T22:28:57.423Z,-1.71
2019-01-21T22:31:26.561Z,-1.66
2019-01-21T22:33:55.674Z,-1.62
2019-01-21T22:36:24.789Z,-1.57
2019-01-21T22:38:53.950Z,-1.53
2019-01-21T22:41:23.056Z,-1.49
2019-01-21T22:43:52.176Z,-1.44
2019-01-21T22:46:23.313Z,-1.40
2019-01-21T22:48:52.441Z,-1.36
2019-01-21T22:51:21.589Z,-1.32
2019-01-21T22:53:50.743Z,-1.29
2019-01-21T22:56:19.860Z,-1.27
2019-01-21T22:58:48.955Z,-1.22
2019-01-21T23:01:18.112Z,-1.19
2019-01-21T23:03:47.197Z,-1.15
2019-01-21T23:06:16.289Z,-1.12
2019-01-21T23:08:45.434Z,-1.10
2019-01-21T23:11:14.575Z,-1.08
2019-01-21T23:13:46.574Z,-1.10
2019-01-21T23:16:15.689Z,-1.15
2019-01-21T23:18:44.799Z,-1.16
2019-01-21T23:21:13.913Z,-1.13
2019-01-21T23:23:43.047Z,-1.10
2019-01-21T23:26:12.164Z,-1.06
2019-01-21T23:28:41.264Z,-1.01
2019-01-21T23:31:10.384Z,-0.95
2019-01-21T23:33:39.487Z,-0.91
2019-01-21T23:36:08.595Z,-0.88
2019-01-21T23:38:37.826Z,-0.86
2019-01-21T23:41:06.920Z,-0.82
2019-01-21T23:43:36.031Z,-0.77
2019-01-21T23:52:16.461Z,-0.68
2019-01-21T23:54:45.536Z,-0.64
2019-01-21T23:57:14.600Z,-0.60
2019-01-21T23:59:43.707Z,-0.56
